sensor_id;sensor_type;location;lat;lon;timestamp;P1;durP1;ratioP1;P2;durP2;ratioP2
42226;SDS011;27892;52.378;13.122;2023-11-19T00:00:26;10.00;;;7.40;;
42226;SDS011;27892;52.378;13.122;2023-11-19T00:02:53;8.50;;;7.13;;
42226;SDS011;27892;52.378;13.122;2023-11-19T00:05:18;10.23;;;7.40;;
42226;SDS011;27892;52.378;13.122;2023-11-19T00:07:44;9.90;;;6.80;;
42226;SDS011;27892;52.378;13.122;2023-11-19T00:10:11;8.93;;;6.80;;
42226;SDS011;27892;52.378;13.122;2023-11-19T00:12:38;10.17;;;6.93;;
42226;SDS011;27892;52.378;13.122;2023-11-19T00:15:09;8.60;;;6.70;;
42226;SDS011;27892;52.378;13.122;2023-11-19T00:17:39;8.20;;;6.77;;
42226;SDS011;27892;52.378;13.122;2023-11-19T00:20:13;7.47;;;6.67;;
42226;SDS011;27892;52.378;13.122;2023-11-19T00:22:40;8.00;;;6.20;;
42226;SDS011;27892;52.378;13.122;2023-11-19T00:25:07;10.53;;;8.87;;
42226;SDS011;27892;52.378;13.122;2023-11-19T00:27:33;12.33;;;9.70;;
42226;SDS011;27892;52.378;13.122;2023-11-19T00:29:59;14.00;;;10.67;;
42226;SDS011;27892;52.378;13.122;2023-11-19T00:32:24;9.23;;;6.80;;
42226;SDS011;27892;52.378;13.122;2023-11-19T00:34:50;8.50;;;6.13;;
42226;SDS011;27892;52.378;13.122;2023-11-19T00:37:16;7.73;;;6.23;;
42226;SDS011;27892;52.378;13.122;2023-11-19T00:39:42;7.43;;;6.30;;
42226;SDS011;27892;52.378;13.122;2023-11-19T00:42:11;7.67;;;6.67;;
42226;SDS011;27892;52.378;13.122;2023-11-19T00:44:37;7.07;;;6.10;;
42226;SDS011;27892;52.378;13.122;2023-11-19T00:47:02;6.83;;;6.13;;
42226;SDS011;27892;52.378;13.122;2023-11-19T00:49:30;8.73;;;6.53;;
42226;SDS011;27892;52.378;13.122;2023-11-19T00:51:57;8.03;;;6.43;;
42226;SDS011;27892;52.378;13.122;2023-11-19T00:54:24;7.90;;;6.73;;
42226;SDS011;27892;52.378;13.122;2023-11-19T00:56:51;7.90;;;6.47;;
42226;SDS011;27892;52.378;13.122;2023-11-19T00:59:17;9.20;;;6.77;;
42226;SDS011;27892;52.378;13.122;2023-11-19T01:01:43;7.67;;;6.60;;
42226;SDS011;27892;52.378;13.122;2023-11-19T01:04:09;8.97;;;6.63;;
42226;SDS011;27892;52.378;13.122;2023-11-19T01:06:35;7.17;;;6.30;;
42226;SDS011;27892;52.378;13.122;2023-11-19T01:09:00;7.57;;;6.77;;
42226;SDS011;27892;52.378;13.122;2023-11-19T01:11:26;9.57;;;6.93;;
42226;SDS011;27892;52.378;13.122;2023-11-19T01:13:52;8.13;;;6.70;;
42226;SDS011;27892;52.378;13.122;2023-11-19T01:16:18;8.13;;;6.50;;
42226;SDS011;27892;52.378;13.122;2023-11-19T01:18:44;8.40;;;6.93;;
42226;SDS011;27892;52.378;13.122;2023-11-19T01:21:12;7.03;;;6.33;;
42226;SDS011;27892;52.378;13.122;2023-11-19T01:23:39;6.70;;;5.97;;
42226;SDS011;27892;52.378;13.122;2023-11-19T01:26:08;7.07;;;6.03;;
42226;SDS011;27892;52.378;13.122;2023-11-19T01:28:35;8.00;;;6.20;;
42226;SDS011;27892;52.378;13.122;2023-11-19T01:31:01;9.70;;;7.07;;
42226;SDS011;27892;52.378;13.122;2023-11-19T01:33:28;8.40;;;7.00;;
42226;SDS011;27892;52.378;13.122;2023-11-19T01:35:54;7.83;;;6.70;;
42226;SDS011;27892;52.378;13.122;2023-11-19T01:38:23;8.37;;;7.07;;
42226;SDS011;27892;52.378;13.122;2023-11-19T01:40:49;7.23;;;6.40;;
42226;SDS011;27892;52.378;13.122;2023-11-19T01:43:34;7.97;;;6.97;;
42226;SDS011;27892;52.378;13.122;2023-11-19T01:46:01;9.43;;;7.13;;
42226;SDS011;27892;52.378;13.122;2023-11-19T01:48:34;18.30;;;7.40;;
42226;SDS011;27892;52.378;13.122;2023-11-19T01:51:04;9.50;;;7.07;;
42226;SDS011;27892;52.378;13.122;2023-11-19T01:53:31;9.70;;;7.23;;
42226;SDS011;27892;52.378;13.122;2023-11-19T01:55:59;7.60;;;6.80;;
42226;SDS011;27892;52.378;13.122;2023-11-19T01:58:26;9.10;;;6.70;;
42226;SDS011;27892;52.378;13.122;2023-11-19T02:00:52;8.40;;;6.70;;
42226;SDS011;27892;52.378;13.122;2023-11-19T02:03:18;7.27;;;6.57;;
42226;SDS011;27892;52.378;13.122;2023-11-19T02:05:45;8.57;;;6.40;;
42226;SDS011;27892;52.378;13.122;2023-11-19T02:08:14;8.07;;;6.27;;
42226;SDS011;27892;52.378;13.122;2023-11-19T02:10:39;8.57;;;6.43;;
42226;SDS011;27892;52.378;13.122;2023-11-19T02:13:05;7.17;;;6.43;;
42226;SDS011;27892;52.378;13.122;2023-11-19T02:15:35;8.33;;;6.70;;
42226;SDS011;27892;52.378;13.122;2023-11-19T02:18:16;8.90;;;6.53;;
42226;SDS011;27892;52.378;13.122;2023-11-19T02:20:43;7.57;;;6.50;;
42226;SDS011;27892;52.378;13.122;2023-11-19T02:23:09;6.30;;;5.70;;
42226;SDS011;27892;52.378;13.122;2023-11-19T02:25:35;8.47;;;6.17;;
42226;SDS011;27892;52.378;13.122;2023-11-19T02:28:02;6.30;;;5.70;;
42226;SDS011;27892;52.378;13.122;2023-11-19T02:30:29;7.87;;;6.03;;
42226;SDS011;27892;52.378;13.122;2023-11-19T02:32:55;8.37;;;6.70;;
42226;SDS011;27892;52.378;13.122;2023-11-19T02:35:23;7.63;;;5.90;;
42226;SDS011;27892;52.378;13.122;2023-11-19T02:37:57;6.13;;;5.13;;
42226;SDS011;27892;52.378;13.122;2023-11-19T02:40:24;6.03;;;5.43;;
42226;SDS011;27892;52.378;13.122;2023-11-19T02:42:50;6.40;;;5.70;;
42226;SDS011;27892;52.378;13.122;2023-11-19T02:45:17;6.73;;;5.53;;
42226;SDS011;27892;52.378;13.122;2023-11-19T02:47:43;6.20;;;5.60;;
42226;SDS011;27892;52.378;13.122;2023-11-19T02:50:12;6.40;;;5.80;;
42226;SDS011;27892;52.378;13.122;2023-11-19T02:52:43;6.23;;;5.27;;
42226;SDS011;27892;52.378;13.122;2023-11-19T02:55:11;6.40;;;5.80;;
42226;SDS011;27892;52.378;13.122;2023-11-19T02:57:40;6.77;;;5.53;;
42226;SDS011;27892;52.378;13.122;2023-11-19T03:02:42;5.33;;;4.83;;
42226;SDS011;27892;52.378;13.122;2023-11-19T03:05:13;6.07;;;5.07;;
42226;SDS011;27892;52.378;13.122;2023-11-19T03:07:43;5.83;;;5.23;;
42226;SDS011;27892;52.378;13.122;2023-11-19T03:10:12;5.93;;;5.33;;
42226;SDS011;27892;52.378;13.122;2023-11-19T03:12:41;7.37;;;5.27;;
42226;SDS011;27892;52.378;13.122;2023-11-19T03:15:08;6.03;;;5.40;;
42226;SDS011;27892;52.378;13.122;2023-11-19T03:17:40;6.27;;;5.60;;
42226;SDS011;27892;52.378;13.122;2023-11-19T03:20:09;7.00;;;5.30;;
42226;SDS011;27892;52.378;13.122;2023-11-19T03:22:42;6.20;;;5.07;;
42226;SDS011;27892;52.378;13.122;2023-11-19T03:25:09;6.20;;;5.23;;
42226;SDS011;27892;52.378;13.122;2023-11-19T03:27:38;5.60;;;5.00;;
42226;SDS011;27892;52.378;13.122;2023-11-19T03:30:05;8.10;;;5.53;;
42226;SDS011;27892;52.378;13.122;2023-11-19T03:32:31;8.53;;;5.70;;
42226;SDS011;27892;52.378;13.122;2023-11-19T03:34:58;5.90;;;5.30;;
42226;SDS011;27892;52.378;13.122;2023-11-19T03:37:24;6.50;;;5.30;;
42226;SDS011;27892;52.378;13.122;2023-11-19T03:39:51;6.67;;;5.40;;
42226;SDS011;27892;52.378;13.122;2023-11-19T03:42:21;6.33;;;5.50;;
42226;SDS011;27892;52.378;13.122;2023-11-19T03:44:47;6.13;;;5.43;;
42226;SDS011;27892;52.378;13.122;2023-11-19T03:47:14;8.33;;;5.67;;
42226;SDS011;27892;52.378;13.122;2023-11-19T03:49:40;7.33;;;5.90;;
42226;SDS011;27892;52.378;13.122;2023-11-19T03:52:05;7.27;;;6.00;;
42226;SDS011;27892;52.378;13.122;2023-11-19T03:54:31;7.50;;;6.63;;
42226;SDS011;27892;52.378;13.122;2023-11-19T03:56:57;6.50;;;5.80;;
42226;SDS011;27892;52.378;13.122;2023-11-19T03:59:25;6.40;;;5.47;;
42226;SDS011;27892;52.378;13.122;2023-11-19T04:01:50;6.17;;;5.50;;
42226;SDS011;27892;52.378;13.122;2023-11-19T04:04:18;7.73;;;6.00;;
42226;SDS011;27892;52.378;13.122;2023-11-19T04:06:44;6.57;;;5.87;;
42226;SDS011;27892;52.378;13.122;2023-11-19T04:09:09;6.83;;;5.93;;
42226;SDS011;27892;52.378;13.122;2023-11-19T04:11:35;7.10;;;6.10;;
42226;SDS011;27892;52.378;13.122;2023-11-19T04:14:01;6.63;;;5.70;;
42226;SDS011;27892;52.378;13.122;2023-11-19T04:16:27;8.47;;;5.97;;
42226;SDS011;27892;52.378;13.122;2023-11-19T04:18:56;9.10;;;6.53;;
42226;SDS011;27892;52.378;13.122;2023-11-19T04:21:21;8.23;;;7.07;;
42226;SDS011;27892;52.378;13.122;2023-11-19T04:23:48;7.40;;;6.70;;
42226;SDS011;27892;52.378;13.122;2023-11-19T04:26:14;8.63;;;6.83;;
42226;SDS011;27892;52.378;13.122;2023-11-19T04:28:40;7.80;;;6.33;;
42226;SDS011;27892;52.378;13.122;2023-11-19T04:31:06;8.93;;;7.33;;
42226;SDS011;27892;52.378;13.122;2023-11-19T04:33:34;8.53;;;7.07;;
42226;SDS011;27892;52.378;13.122;2023-11-19T04:35:59;9.77;;;7.47;;
42226;SDS011;27892;52.378;13.122;2023-11-19T04:38:25;9.07;;;6.63;;
42226;SDS011;27892;52.378;13.122;2023-11-19T04:40:52;9.13;;;7.63;;
42226;SDS011;27892;52.378;13.122;2023-11-19T04:43:17;7.60;;;6.20;;
42226;SDS011;27892;52.378;13.122;2023-11-19T04:45:44;7.27;;;6.27;;
42226;SDS011;27892;52.378;13.122;2023-11-19T04:48:10;10.60;;;6.97;;
42226;SDS011;27892;52.378;13.122;2023-11-19T04:50:37;8.60;;;6.70;;
42226;SDS011;27892;52.378;13.122;2023-11-19T04:53:03;8.23;;;7.03;;
42226;SDS011;27892;52.378;13.122;2023-11-19T04:55:29;8.47;;;6.83;;
42226;SDS011;27892;52.378;13.122;2023-11-19T04:57:55;10.70;;;7.37;;
42226;SDS011;27892;52.378;13.122;2023-11-19T05:00:20;8.93;;;7.50;;
42226;SDS011;27892;52.378;13.122;2023-11-19T05:02:46;8.97;;;7.13;;
42226;SDS011;27892;52.378;13.122;2023-11-19T05:05:12;9.90;;;7.27;;
42226;SDS011;27892;52.378;13.122;2023-11-19T05:07:38;8.03;;;7.23;;
42226;SDS011;27892;52.378;13.122;2023-11-19T05:10:03;8.53;;;7.23;;
42226;SDS011;27892;52.378;13.122;2023-11-19T05:12:31;9.43;;;7.57;;
42226;SDS011;27892;52.378;13.122;2023-11-19T05:14:56;8.23;;;7.17;;
42226;SDS011;27892;52.378;13.122;2023-11-19T05:17:23;10.73;;;8.07;;
42226;SDS011;27892;52.378;13.122;2023-11-19T05:19:49;8.17;;;6.93;;
42226;SDS011;27892;52.378;13.122;2023-11-19T05:22:14;8.40;;;7.20;;
42226;SDS011;27892;52.378;13.122;2023-11-19T05:24:40;7.87;;;6.97;;
42226;SDS011;27892;52.378;13.122;2023-11-19T05:27:06;8.40;;;7.17;;
42226;SDS011;27892;52.378;13.122;2023-11-19T05:29:32;7.30;;;6.17;;
42226;SDS011;27892;52.378;13.122;2023-11-19T05:31:58;10.77;;;8.17;;
42226;SDS011;27892;52.378;13.122;2023-11-19T05:34:24;8.73;;;7.63;;
42226;SDS011;27892;52.378;13.122;2023-11-19T05:36:50;9.80;;;7.70;;
42226;SDS011;27892;52.378;13.122;2023-11-19T05:39:16;8.57;;;7.10;;
42226;SDS011;27892;52.378;13.122;2023-11-19T05:41:43;9.93;;;7.43;;
42226;SDS011;27892;52.378;13.122;2023-11-19T05:44:09;9.33;;;7.63;;
42226;SDS011;27892;52.378;13.122;2023-11-19T05:46:34;9.30;;;7.87;;
42226;SDS011;27892;52.378;13.122;2023-11-19T05:49:05;8.93;;;7.40;;
42226;SDS011;27892;52.378;13.122;2023-11-19T05:51:35;9.57;;;7.77;;
42226;SDS011;27892;52.378;13.122;2023-11-19T05:54:02;8.63;;;6.80;;
42226;SDS011;27892;52.378;13.122;2023-11-19T05:56:27;8.03;;;7.13;;
42226;SDS011;27892;52.378;13.122;2023-11-19T05:58:57;7.50;;;6.40;;
42226;SDS011;27892;52.378;13.122;2023-11-19T06:01:25;7.30;;;6.50;;
42226;SDS011;27892;52.378;13.122;2023-11-19T06:03:51;9.87;;;7.10;;
42226;SDS011;27892;52.378;13.122;2023-11-19T06:06:17;9.67;;;7.20;;
42226;SDS011;27892;52.378;13.122;2023-11-19T06:08:43;10.40;;;7.80;;
42226;SDS011;27892;52.378;13.122;2023-11-19T06:11:09;7.93;;;6.83;;
42226;SDS011;27892;52.378;13.122;2023-11-19T06:13:40;8.73;;;7.30;;
42226;SDS011;27892;52.378;13.122;2023-11-19T06:16:05;8.00;;;7.10;;
42226;SDS011;27892;52.378;13.122;2023-11-19T06:18:31;8.73;;;7.33;;
42226;SDS011;27892;52.378;13.122;2023-11-19T06:20:57;7.63;;;6.77;;
42226;SDS011;27892;52.378;13.122;2023-11-19T06:23:23;8.93;;;6.83;;
42226;SDS011;27892;52.378;13.122;2023-11-19T06:25:48;9.07;;;6.67;;
42226;SDS011;27892;52.378;13.122;2023-11-19T06:28:14;11.00;;;7.73;;
42226;SDS011;27892;52.378;13.122;2023-11-19T06:30:40;8.33;;;6.93;;
42226;SDS011;27892;52.378;13.122;2023-11-19T06:33:06;11.47;;;7.73;;
42226;SDS011;27892;52.378;13.122;2023-11-19T06:35:32;9.30;;;7.57;;
42226;SDS011;27892;52.378;13.122;2023-11-19T06:38:02;9.20;;;7.10;;
42226;SDS011;27892;52.378;13.122;2023-11-19T06:40:29;8.23;;;7.10;;
42226;SDS011;27892;52.378;13.122;2023-11-19T06:43:00;8.47;;;6.63;;
42226;SDS011;27892;52.378;13.122;2023-11-19T06:45:26;10.23;;;7.20;;
42226;SDS011;27892;52.378;13.122;2023-11-19T06:47:51;8.20;;;6.77;;
42226;SDS011;27892;52.378;13.122;2023-11-19T06:50:17;8.03;;;5.73;;
42226;SDS011;27892;52.378;13.122;2023-11-19T06:52:44;5.47;;;4.97;;
42226;SDS011;27892;52.378;13.122;2023-11-19T06:55:10;8.10;;;6.50;;
42226;SDS011;27892;52.378;13.122;2023-11-19T06:57:36;8.73;;;6.50;;
42226;SDS011;27892;52.378;13.122;2023-11-19T07:00:02;7.80;;;6.80;;
42226;SDS011;27892;52.378;13.122;2023-11-19T07:02:30;6.53;;;5.80;;
42226;SDS011;27892;52.378;13.122;2023-11-19T07:04:56;6.87;;;6.17;;
42226;SDS011;27892;52.378;13.122;2023-11-19T07:07:22;6.93;;;6.23;;
42226;SDS011;27892;52.378;13.122;2023-11-19T07:09:48;6.50;;;5.80;;
42226;SDS011;27892;52.378;13.122;2023-11-19T07:12:13;7.20;;;6.10;;
42226;SDS011;27892;52.378;13.122;2023-11-19T07:14:39;7.37;;;6.30;;
42226;SDS011;27892;52.378;13.122;2023-11-19T07:17:07;7.30;;;6.10;;
42226;SDS011;27892;52.378;13.122;2023-11-19T07:19:34;6.50;;;5.83;;
42226;SDS011;27892;52.378;13.122;2023-11-19T07:22:02;5.93;;;5.33;;
42226;SDS011;27892;52.378;13.122;2023-11-19T07:24:27;6.07;;;4.70;;
42226;SDS011;27892;52.378;13.122;2023-11-19T07:26:53;6.30;;;5.70;;
42226;SDS011;27892;52.378;13.122;2023-11-19T07:29:19;5.67;;;5.07;;
42226;SDS011;27892;52.378;13.122;2023-11-19T07:31:48;5.50;;;4.93;;
42226;SDS011;27892;52.378;13.122;2023-11-19T07:34:14;5.67;;;5.13;;
42226;SDS011;27892;52.378;13.122;2023-11-19T07:36:40;4.53;;;4.13;;
42226;SDS011;27892;52.378;13.122;2023-11-19T07:39:06;4.63;;;4.23;;
42226;SDS011;27892;52.378;13.122;2023-11-19T07:41:33;5.03;;;4.53;;
42226;SDS011;27892;52.378;13.122;2023-11-19T07:43:59;5.20;;;4.60;;
42226;SDS011;27892;52.378;13.122;2023-11-19T07:46:25;5.20;;;4.70;;
42226;SDS011;27892;52.378;13.122;2023-11-19T07:48:52;5.10;;;4.60;;
42226;SDS011;27892;52.378;13.122;2023-11-19T07:51:17;4.50;;;4.10;;
42226;SDS011;27892;52.378;13.122;2023-11-19T07:53:43;4.37;;;3.97;;
42226;SDS011;27892;52.378;13.122;2023-11-19T07:56:09;4.97;;;4.57;;
42226;SDS011;27892;52.378;13.122;2023-11-19T07:58:35;4.90;;;4.50;;
42226;SDS011;27892;52.378;13.122;2023-11-19T08:01:01;5.43;;;4.93;;
42226;SDS011;27892;52.378;13.122;2023-11-19T08:03:28;6.60;;;5.87;;
42226;SDS011;27892;52.378;13.122;2023-11-19T08:05:57;5.00;;;4.50;;
42226;SDS011;27892;52.378;13.122;2023-11-19T08:08:23;5.90;;;4.60;;
42226;SDS011;27892;52.378;13.122;2023-11-19T08:10:49;5.30;;;4.80;;
42226;SDS011;27892;52.378;13.122;2023-11-19T08:13:16;4.40;;;4.00;;
42226;SDS011;27892;52.378;13.122;2023-11-19T08:15:43;5.33;;;4.83;;
42226;SDS011;27892;52.378;13.122;2023-11-19T08:18:08;5.40;;;4.83;;
42226;SDS011;27892;52.378;13.122;2023-11-19T08:20:34;4.27;;;3.87;;
42226;SDS011;27892;52.378;13.122;2023-11-19T08:23:00;4.40;;;3.83;;
42226;SDS011;27892;52.378;13.122;2023-11-19T08:25:27;5.37;;;4.37;;
42226;SDS011;27892;52.378;13.122;2023-11-19T08:27:53;4.00;;;3.60;;
42226;SDS011;27892;52.378;13.122;2023-11-19T08:30:18;3.10;;;2.90;;
42226;SDS011;27892;52.378;13.122;2023-11-19T08:32:44;4.10;;;3.60;;
42226;SDS011;27892;52.378;13.122;2023-11-19T08:35:10;3.83;;;3.53;;
42226;SDS011;27892;52.378;13.122;2023-11-19T08:37:36;3.30;;;3.10;;
42226;SDS011;27892;52.378;13.122;2023-11-19T08:40:02;5.43;;;4.93;;
42226;SDS011;27892;52.378;13.122;2023-11-19T08:42:29;5.37;;;4.87;;
42226;SDS011;27892;52.378;13.122;2023-11-19T08:44:55;4.40;;;4.00;;
42226;SDS011;27892;52.378;13.122;2023-11-19T08:47:21;3.70;;;3.40;;
42226;SDS011;27892;52.378;13.122;2023-11-19T08:49:48;3.20;;;3.00;;
42226;SDS011;27892;52.378;13.122;2023-11-19T08:52:17;3.60;;;3.30;;
42226;SDS011;27892;52.378;13.122;2023-11-19T08:54:43;4.00;;;3.60;;
42226;SDS011;27892;52.378;13.122;2023-11-19T08:57:09;3.83;;;3.53;;
42226;SDS011;27892;52.378;13.122;2023-11-19T08:59:34;3.03;;;2.83;;
42226;SDS011;27892;52.378;13.122;2023-11-19T09:02:02;2.60;;;2.40;;
42226;SDS011;27892;52.378;13.122;2023-11-19T09:04:29;2.90;;;2.70;;
42226;SDS011;27892;52.378;13.122;2023-11-19T09:06:55;3.37;;;3.17;;
42226;SDS011;27892;52.378;13.122;2023-11-19T09:09:23;3.47;;;3.17;;
42226;SDS011;27892;52.378;13.122;2023-11-19T09:11:48;2.90;;;2.70;;
42226;SDS011;27892;52.378;13.122;2023-11-19T09:14:14;2.50;;;2.40;;
42226;SDS011;27892;52.378;13.122;2023-11-19T09:16:39;2.70;;;2.50;;
42226;SDS011;27892;52.378;13.122;2023-11-19T09:19:05;2.30;;;2.10;;
42226;SDS011;27892;52.378;13.122;2023-11-19T09:21:31;2.83;;;2.50;;
42226;SDS011;27892;52.378;13.122;2023-11-19T09:23:57;2.37;;;2.17;;
42226;SDS011;27892;52.378;13.122;2023-11-19T09:26:23;2.30;;;2.20;;
42226;SDS011;27892;52.378;13.122;2023-11-19T09:28:48;2.50;;;2.30;;
42226;SDS011;27892;52.378;13.122;2023-11-19T09:31:14;2.83;;;2.03;;
42226;SDS011;27892;52.378;13.122;2023-11-19T09:33:40;2.30;;;2.10;;
42226;SDS011;27892;52.378;13.122;2023-11-19T09:36:06;2.10;;;2.00;;
42226;SDS011;27892;52.378;13.122;2023-11-19T09:38:32;2.00;;;1.90;;
42226;SDS011;27892;52.378;13.122;2023-11-19T09:40:58;2.20;;;2.00;;
42226;SDS011;27892;52.378;13.122;2023-11-19T09:43:26;2.63;;;1.90;;
42226;SDS011;27892;52.378;13.122;2023-11-19T09:45:53;1.90;;;1.80;;
42226;SDS011;27892;52.378;13.122;2023-11-19T09:48:21;3.30;;;1.90;;
42226;SDS011;27892;52.378;13.122;2023-11-19T09:50:49;2.77;;;1.80;;
42226;SDS011;27892;52.378;13.122;2023-11-19T09:53:16;2.40;;;1.60;;
42226;SDS011;27892;52.378;13.122;2023-11-19T09:55:43;2.10;;;1.70;;
42226;SDS011;27892;52.378;13.122;2023-11-19T09:58:09;3.00;;;1.80;;
42226;SDS011;27892;52.378;13.122;2023-11-19T10:00:38;2.53;;;1.40;;
42226;SDS011;27892;52.378;13.122;2023-11-19T10:03:05;3.23;;;1.73;;
42226;SDS011;27892;52.378;13.122;2023-11-19T10:05:34;4.67;;;1.87;;
42226;SDS011;27892;52.378;13.122;2023-11-19T10:08:01;2.27;;;1.63;;
42226;SDS011;27892;52.378;13.122;2023-11-19T10:10:28;1.60;;;1.50;;
42226;SDS011;27892;52.378;13.122;2023-11-19T10:12:53;3.17;;;1.50;;
42226;SDS011;27892;52.378;13.122;2023-11-19T10:15:20;1.97;;;1.40;;
42226;SDS011;27892;52.378;13.122;2023-11-19T10:17:47;1.53;;;1.43;;
42226;SDS011;27892;52.378;13.122;2023-11-19T10:20:13;1.33;;;1.27;;
42226;SDS011;27892;52.378;13.122;2023-11-19T10:22:39;3.57;;;1.40;;
42226;SDS011;27892;52.378;13.122;2023-11-19T10:25:05;2.97;;;1.60;;
42226;SDS011;27892;52.378;13.122;2023-11-19T10:27:47;2.83;;;1.90;;
42226;SDS011;27892;52.378;13.122;2023-11-19T10:30:13;2.57;;;2.00;;
42226;SDS011;27892;52.378;13.122;2023-11-19T10:35:54;3.13;;;2.00;;
42226;SDS011;27892;52.378;13.122;2023-11-19T10:38:23;5.73;;;2.07;;
42226;SDS011;27892;52.378;13.122;2023-11-19T10:40:50;2.73;;;1.80;;
42226;SDS011;27892;52.378;13.122;2023-11-19T10:43:20;2.40;;;1.80;;
42226;SDS011;27892;52.378;13.122;2023-11-19T10:45:48;5.77;;;2.40;;
42226;SDS011;27892;52.378;13.122;2023-11-19T10:48:13;4.33;;;2.10;;
42226;SDS011;27892;52.378;13.122;2023-11-19T10:50:41;4.67;;;2.23;;
42226;SDS011;27892;52.378;13.122;2023-11-19T10:53:09;5.20;;;2.30;;
42226;SDS011;27892;52.378;13.122;2023-11-19T10:55:38;4.73;;;2.53;;
42226;SDS011;27892;52.378;13.122;2023-11-19T10:58:04;6.87;;;2.53;;
42226;SDS011;27892;52.378;13.122;2023-11-19T11:03:24;7.40;;;2.73;;
42226;SDS011;27892;52.378;13.122;2023-11-19T11:05:51;6.93;;;2.80;;
42226;SDS011;27892;52.378;13.122;2023-11-19T11:08:18;7.77;;;3.13;;
42226;SDS011;27892;52.378;13.122;2023-11-19T11:10:49;7.63;;;2.90;;
42226;SDS011;27892;52.378;13.122;2023-11-19T11:13:18;4.63;;;2.93;;
42226;SDS011;27892;52.378;13.122;2023-11-19T11:15:44;8.27;;;3.07;;
42226;SDS011;27892;52.378;13.122;2023-11-19T11:18:14;9.17;;;3.43;;
42226;SDS011;27892;52.378;13.122;2023-11-19T11:20:40;9.70;;;3.40;;
42226;SDS011;27892;52.378;13.122;2023-11-19T11:31:15;6.97;;;2.93;;
42226;SDS011;27892;52.378;13.122;2023-11-19T11:34:07;5.93;;;2.57;;
42226;SDS011;27892;52.378;13.122;2023-11-19T11:36:49;4.47;;;2.63;;
42226;SDS011;27892;52.378;13.122;2023-11-19T11:39:28;11.47;;;3.57;;
42226;SDS011;27892;52.378;13.122;2023-11-19T11:42:38;5.60;;;2.53;;
42226;SDS011;27892;52.378;13.122;2023-11-19T11:45:07;6.93;;;2.73;;
42226;SDS011;27892;52.378;13.122;2023-11-19T11:50:16;6.17;;;2.53;;
42226;SDS011;27892;52.378;13.122;2023-11-19T11:55:26;5.83;;;2.63;;
42226;SDS011;27892;52.378;13.122;2023-11-19T11:57:53;7.73;;;3.00;;
42226;SDS011;27892;52.378;13.122;2023-11-19T12:00:26;5.93;;;2.80;;
42226;SDS011;27892;52.378;13.122;2023-11-19T12:02:57;6.13;;;3.13;;
42226;SDS011;27892;52.378;13.122;2023-11-19T12:05:25;5.80;;;3.00;;
42226;SDS011;27892;52.378;13.122;2023-11-19T12:08:01;4.47;;;2.97;;
42226;SDS011;27892;52.378;13.122;2023-11-19T12:10:29;5.77;;;2.90;;
42226;SDS011;27892;52.378;13.122;2023-11-19T12:13:06;9.97;;;3.57;;
42226;SDS011;27892;52.378;13.122;2023-11-19T12:15:32;8.57;;;3.20;;
42226;SDS011;27892;52.378;13.122;2023-11-19T12:17:58;13.77;;;4.20;;
42226;SDS011;27892;52.378;13.122;2023-11-19T12:20:25;9.37;;;3.90;;
42226;SDS011;27892;52.378;13.122;2023-11-19T12:22:51;12.03;;;4.13;;
42226;SDS011;27892;52.378;13.122;2023-11-19T12:25:18;6.63;;;3.30;;
42226;SDS011;27892;52.378;13.122;2023-11-19T12:27:45;12.53;;;4.27;;
42226;SDS011;27892;52.378;13.122;2023-11-19T12:30:16;7.83;;;3.50;;
42226;SDS011;27892;52.378;13.122;2023-11-19T12:32:44;9.80;;;3.20;;
42226;SDS011;27892;52.378;13.122;2023-11-19T12:35:11;9.87;;;3.93;;
42226;SDS011;27892;52.378;13.122;2023-11-19T12:40:13;9.50;;;3.63;;
42226;SDS011;27892;52.378;13.122;2023-11-19T12:42:40;10.17;;;3.90;;
42226;SDS011;27892;52.378;13.122;2023-11-19T12:45:06;6.20;;;3.40;;
42226;SDS011;27892;52.378;13.122;2023-11-19T12:47:35;7.47;;;3.40;;
42226;SDS011;27892;52.378;13.122;2023-11-19T12:50:02;10.07;;;3.93;;
42226;SDS011;27892;52.378;13.122;2023-11-19T12:52:29;11.23;;;4.27;;
42226;SDS011;27892;52.378;13.122;2023-11-19T12:54:55;13.30;;;4.60;;
42226;SDS011;27892;52.378;13.122;2023-11-19T12:57:35;6.33;;;3.10;;
42226;SDS011;27892;52.378;13.122;2023-11-19T13:00:07;9.90;;;4.30;;
42226;SDS011;27892;52.378;13.122;2023-11-19T13:02:53;10.00;;;3.80;;
42226;SDS011;27892;52.378;13.122;2023-11-19T13:07:51;8.30;;;3.70;;
42226;SDS011;27892;52.378;13.122;2023-11-19T13:10:23;12.83;;;4.30;;
42226;SDS011;27892;52.378;13.122;2023-11-19T13:15:27;8.17;;;3.30;;
42226;SDS011;27892;52.378;13.122;2023-11-19T13:17:56;17.37;;;9.13;;
42226;SDS011;27892;52.378;13.122;2023-11-19T13:20:22;13.77;;;7.13;;
42226;SDS011;27892;52.378;13.122;2023-11-19T13:22:58;11.33;;;5.07;;
42226;SDS011;27892;52.378;13.122;2023-11-19T13:25:23;7.80;;;4.20;;
42226;SDS011;27892;52.378;13.122;2023-11-19T13:27:49;7.97;;;3.37;;
42226;SDS011;27892;52.378;13.122;2023-11-19T13:30:15;6.13;;;3.47;;
42226;SDS011;27892;52.378;13.122;2023-11-19T13:32:41;5.60;;;2.97;;
42226;SDS011;27892;52.378;13.122;2023-11-19T13:35:08;9.30;;;3.30;;
42226;SDS011;27892;52.378;13.122;2023-11-19T13:37:34;11.80;;;4.03;;
42226;SDS011;27892;52.378;13.122;2023-11-19T13:40:00;9.47;;;3.60;;
42226;SDS011;27892;52.378;13.122;2023-11-19T13:42:26;8.10;;;3.50;;
42226;SDS011;27892;52.378;13.122;2023-11-19T13:44:53;7.43;;;3.10;;
42226;SDS011;27892;52.378;13.122;2023-11-19T13:47:21;7.33;;;3.23;;
42226;SDS011;27892;52.378;13.122;2023-11-19T13:49:47;9.90;;;4.03;;
42226;SDS011;27892;52.378;13.122;2023-11-19T13:52:12;14.87;;;4.00;;
42226;SDS011;27892;52.378;13.122;2023-11-19T13:54:38;11.27;;;4.30;;
42226;SDS011;27892;52.378;13.122;2023-11-19T13:57:04;13.73;;;4.03;;
42226;SDS011;27892;52.378;13.122;2023-11-19T13:59:33;13.13;;;3.93;;
42226;SDS011;27892;52.378;13.122;2023-11-19T14:02:04;16.07;;;4.80;;
42226;SDS011;27892;52.378;13.122;2023-11-19T14:04:32;16.40;;;4.90;;
42226;SDS011;27892;52.378;13.122;2023-11-19T14:06:58;14.83;;;4.93;;
42226;SDS011;27892;52.378;13.122;2023-11-19T14:09:24;11.97;;;4.20;;
42226;SDS011;27892;52.378;13.122;2023-11-19T14:11:50;10.80;;;4.40;;
42226;SDS011;27892;52.378;13.122;2023-11-19T14:14:16;14.57;;;4.20;;
42226;SDS011;27892;52.378;13.122;2023-11-19T14:16:42;11.20;;;4.33;;
42226;SDS011;27892;52.378;13.122;2023-11-19T14:19:07;13.97;;;4.50;;
42226;SDS011;27892;52.378;13.122;2023-11-19T14:21:33;8.27;;;2.93;;
42226;SDS011;27892;52.378;13.122;2023-11-19T14:23:59;8.57;;;3.33;;
42226;SDS011;27892;52.378;13.122;2023-11-19T14:26:24;8.17;;;3.43;;
42226;SDS011;27892;52.378;13.122;2023-11-19T14:28:50;15.37;;;4.50;;
42226;SDS011;27892;52.378;13.122;2023-11-19T14:31:16;17.83;;;4.50;;
42226;SDS011;27892;52.378;13.122;2023-11-19T14:33:41;12.30;;;4.20;;
42226;SDS011;27892;52.378;13.122;2023-11-19T14:36:07;16.17;;;4.40;;
42226;SDS011;27892;52.378;13.122;2023-11-19T14:38:33;14.17;;;4.10;;
42226;SDS011;27892;52.378;13.122;2023-11-19T14:40:59;7.63;;;3.50;;
42226;SDS011;27892;52.378;13.122;2023-11-19T14:43:25;10.07;;;4.03;;
42226;SDS011;27892;52.378;13.122;2023-11-19T14:45:51;27.53;;;14.17;;
42226;SDS011;27892;52.378;13.122;2023-11-19T14:48:17;19.70;;;10.50;;
42226;SDS011;27892;52.378;13.122;2023-11-19T14:50:43;16.83;;;8.73;;
42226;SDS011;27892;52.378;13.122;2023-11-19T14:53:10;13.50;;;6.03;;
42226;SDS011;27892;52.378;13.122;2023-11-19T14:55:38;11.10;;;4.60;;
42226;SDS011;27892;52.378;13.122;2023-11-19T14:58:03;9.30;;;3.57;;
42226;SDS011;27892;52.378;13.122;2023-11-19T15:00:29;8.17;;;3.47;;
42226;SDS011;27892;52.378;13.122;2023-11-19T15:02:55;18.73;;;4.80;;